ESOK/KSD METAR and TAF weather

Enter ICAO airport designator
Station Type Date Time Source
ESOK METAR 2019/09/20 09:20 UTC NOAA

ESOK 200920Z 22004KT 170V280 CAVOK 11/07 Q1019


Station Type Date Time Source
ESOK Decoded METAR 2019/09/20 09:20 UTC NOAA

Karlstad , Sweden (ESOK) 59-26-41N 013-20-15E
Sep 20, 2019 - 05:20 AM EDT / 2019.09.20 0920 UTC
Wind: from the SW (220 degrees) at 5 MPH (4 KT) (direction variable):0
Visibility: greater than 7 mile(s):0
Temperature: 51 F (11 C)
Dew Point: 44 F (7 C)
Relative Humidity: 76%
Pressure (altimeter): 30.09 in. Hg (1019 hPa)
ob: ESOK 200920Z 22004KT 170V280 CAVOK 11/07 Q1019
cycle: 9

Station Type Date Time Source
ESOK TAF 2017/05/22 06:33 UTC NOAA

TAF ESOK 220530Z 2206/2224 28006KT CAVOK

Example: see airport list